Time;durP1;ratioP1;P1;durP2;ratioP2;P2;SDS_P1;SDS_P2;PMS_P1;PMS_P2;Temp;Humidity;BMP_temperature;BMP_pressure;BME280_temperature;BME280_humidity;BME280_pressure;Samples;Min_cycle;Max_cycle;Signal;HPM_P1;HPM_P2
2021/12/13 00:00:35;;;;;;;14.60;14.00;;;20.30;66.90;;;;;;5054756;28;20446;-49
2021/12/13 00:03:14;;;;;;;15.83;14.73;;;20.30;66.90;;;;;;5054142;28;22424;-51
2021/12/13 00:05:46;;;;;;;15.13;14.53;;;20.30;67.20;;;;;;5054378;28;21074;-49
2021/12/13 00:08:19;;;;;;;14.93;14.33;;;20.20;67.10;;;;;;5054406;28;20533;-50
2021/12/13 00:10:52;;;;;;;15.47;14.67;;;20.20;67.10;;;;;;5054190;28;20819;-49
2021/12/13 00:13:23;;;;;;;15.20;14.53;;;20.20;67.30;;;;;;5054272;28;20447;-52
2021/12/13 00:15:56;;;;;;;15.40;14.70;;;20.20;67.40;;;;;;5054274;28;20547;-52
2021/12/13 00:18:27;;;;;;;14.63;13.93;;;20.20;67.40;;;;;;5054215;28;20451;-50
2021/12/13 00:20:59;;;;;;;15.43;14.73;;;20.20;67.40;;;;;;5053994;28;20813;-50
2021/12/13 00:23:30;;;;;;;14.97;14.27;;;20.20;67.50;;;;;;5053830;28;20539;-51
2021/12/13 00:25:59;;;;;;;15.27;14.67;;;20.10;68.20;;;;;;5053788;28;20469;-51
2021/12/13 00:28:32;;;;;;;14.67;14.17;;;20.10;67.60;;;;;;5053876;28;20537;-50
2021/12/13 00:31:24;;;;;;;14.20;13.60;;;20.10;67.50;;;;;;5053811;28;20455;-53
2021/12/13 00:34:04;;;;;;;14.37;13.87;;;20.00;67.60;;;;;;5044054;28;20479;-52
2021/12/13 00:36:34;;;;;;;15.87;15.13;;;20.00;67.70;;;;;;5053884;28;20436;-51
2021/12/13 00:39:09;;;;;;;15.60;14.73;;;20.00;67.80;;;;;;5053833;28;20497;-50
2021/12/13 00:41:38;;;;;;;14.93;14.17;;;20.00;67.80;;;;;;5053386;28;20439;-50
2021/12/13 00:44:09;;;;;;;14.10;13.60;;;20.00;67.80;;;;;;5053462;28;20464;-52
2021/12/13 00:46:40;;;;;;;14.97;14.33;;;20.00;67.70;;;;;;5053766;28;20436;-52
2021/12/13 00:49:11;;;;;;;14.97;14.30;;;20.00;67.80;;;;;;5053760;28;20483;-50
2021/12/13 00:51:44;;;;;;;14.30;13.70;;;20.00;67.80;;;;;;5053271;28;20456;-50
2021/12/13 00:54:15;;;;;;;15.00;14.33;;;20.00;67.90;;;;;;5053523;28;20526;-53
2021/12/13 00:56:57;;;;;;;14.23;13.73;;;19.90;68.10;;;;;;5053373;28;20451;-50
2021/12/13 00:59:27;;;;;;;15.07;14.47;;;19.90;68.00;;;;;;5053462;28;21053;-50
2021/12/13 01:02:01;;;;;;;14.80;13.90;;;19.90;68.00;;;;;;5053082;28;20448;-55
2021/12/13 01:04:47;;;;;;;15.17;14.47;;;19.90;68.00;;;;;;5053335;28;20472;-50
2021/12/13 01:08:00;;;;;;;15.13;14.53;;;19.90;68.00;;;;;;5053363;28;20856;-55
2021/12/13 01:11:09;;;;;;;14.53;13.93;;;19.90;68.10;;;;;;5053020;28;20571;-55
2021/12/13 01:13:55;;;;;;;14.80;14.30;;;19.80;68.10;;;;;;5052916;28;20472;-55
2021/12/13 01:16:49;;;;;;;13.43;12.93;;;19.80;68.20;;;;;;5038760;28;20455;-57
2021/12/13 01:19:32;;;;;;;14.93;14.40;;;19.80;68.30;;;;;;5053128;28;20440;-57
2021/12/13 01:22:28;;;;;;;14.60;14.10;;;19.80;68.40;;;;;;5052241;28;20454;-56
2021/12/13 01:25:19;;;;;;;15.23;14.57;;;19.80;68.30;;;;;;5052973;28;20464;-53
2021/12/13 01:27:53;;;;;;;14.80;14.20;;;19.70;68.30;;;;;;5052926;28;21393;-58
2021/12/13 01:30:24;;;;;;;14.83;14.23;;;19.80;68.40;;;;;;5052600;28;20487;-55
2021/12/13 01:32:53;;;;;;;14.13;13.53;;;19.70;68.30;;;;;;5052789;28;20440;-54
2021/12/13 01:35:24;;;;;;;15.50;14.80;;;19.70;68.50;;;;;;5052760;28;20830;-56
2021/12/13 01:37:53;;;;;;;14.60;14.10;;;19.70;68.60;;;;;;5052749;28;20945;-52
2021/12/13 01:40:25;;;;;;;14.30;13.70;;;19.70;68.70;;;;;;5052014;28;20440;-55
2021/12/13 01:42:59;;;;;;;14.83;14.23;;;19.70;68.70;;;;;;5052516;28;20813;-57
2021/12/13 01:45:30;;;;;;;14.47;13.97;;;19.70;68.60;;;;;;5052551;28;20880;-51
2021/12/13 01:47:58;;;;;;;14.13;13.57;;;19.60;68.70;;;;;;5052488;28;20463;-56
2021/12/13 01:50:31;;;;;;;13.70;13.30;;;19.70;69.00;;;;;;5052421;28;20488;-55
2021/12/13 01:53:00;;;;;;;14.77;14.17;;;19.70;68.90;;;;;;5051745;28;20456;-55
2021/12/13 01:55:35;;;;;;;14.77;14.17;;;19.70;68.80;;;;;;5052126;28;20476;-55
2021/12/13 01:58:34;;;;;;;14.27;13.63;;;19.60;68.60;;;;;;5052441;28;20793;-53
2021/12/13 02:01:10;;;;;;;14.40;13.90;;;19.70;68.70;;;;;;5052358;28;20452;-53
2021/12/13 02:03:52;;;;;;;13.97;13.47;;;19.60;68.70;;;;;;5051913;28;21004;-52
2021/12/13 02:06:29;;;;;;;14.63;14.03;;;19.60;68.90;;;;;;5052175;28;20437;-53
2021/12/13 02:08:58;;;;;;;14.97;14.27;;;19.60;69.10;;;;;;5052073;28;20479;-55
2021/12/13 02:11:27;;;;;;;14.30;13.77;;;19.60;69.10;;;;;;5052210;28;20527;-52
2021/12/13 02:14:08;;;;;;;14.20;13.70;;;19.50;69.00;;;;;;5051924;28;20447;-56
2021/12/13 02:19:45;;;;;;;14.30;13.70;;;19.50;69.20;;;;;;5052177;28;20411;-55
2021/12/13 02:22:31;;;;;;;14.30;13.80;;;19.50;69.40;;;;;;5051741;28;20444;-52
2021/12/13 02:25:01;;;;;;;15.27;14.67;;;19.50;69.70;;;;;;5051835;28;20468;-56
2021/12/13 02:27:32;;;;;;;15.90;15.20;;;19.50;69.60;;;;;;5051668;28;20474;-55
2021/12/13 02:30:02;;;;;;;13.40;12.90;;;19.50;69.80;;;;;;5051743;28;20480;-53
2021/12/13 02:32:35;;;;;;;15.00;14.30;;;19.40;69.60;;;;;;5051572;28;20440;-55
2021/12/13 02:35:06;;;;;;;13.87;13.40;;;19.50;69.70;;;;;;5051603;28;20460;-55
2021/12/13 02:37:34;;;;;;;13.67;13.17;;;19.50;69.60;;;;;;5051348;28;20476;-54
2021/12/13 02:40:06;;;;;;;14.23;13.67;;;19.50;69.60;;;;;;5051448;28;20440;-49
2021/12/13 02:42:34;;;;;;;14.40;13.90;;;19.50;69.80;;;;;;5051427;28;20860;-53
2021/12/13 02:45:13;;;;;;;14.07;13.57;;;19.40;69.70;;;;;;5051387;28;20996;-49
2021/12/13 02:47:45;;;;;;;13.70;13.30;;;19.40;69.90;;;;;;5051392;28;20487;-52
2021/12/13 02:50:17;;;;;;;13.43;13.03;;;19.40;69.90;;;;;;5050621;28;20480;-53
2021/12/13 02:52:45;;;;;;;14.07;13.40;;;19.40;70.00;;;;;;5051371;28;20444;-55
2021/12/13 02:55:17;;;;;;;13.73;13.27;;;19.40;70.00;;;;;;5051358;28;20825;-51
2021/12/13 02:57:47;;;;;;;14.00;13.30;;;19.40;70.00;;;;;;5051489;28;20864;-53
2021/12/13 03:00:22;;;;;;;13.73;13.33;;;19.40;70.10;;;;;;5051232;28;20937;-50
2021/12/13 03:02:52;;;;;;;13.57;13.07;;;19.40;70.20;;;;;;5051175;28;20451;-52
2021/12/13 03:05:24;;;;;;;14.70;14.10;;;19.40;70.30;;;;;;5051280;28;20823;-51
2021/12/13 03:07:56;;;;;;;14.40;13.90;;;19.40;70.10;;;;;;5051143;28;20486;-51
2021/12/13 03:10:26;;;;;;;14.70;14.00;;;19.40;70.20;;;;;;5051211;28;21019;-49
2021/12/13 03:12:53;;;;;;;14.03;13.53;;;19.40;70.20;;;;;;5051064;28;20459;-50
2021/12/13 03:15:26;;;;;;;14.10;13.57;;;19.30;70.10;;;;;;5051189;28;20476;-50
2021/12/13 03:17:58;;;;;;;14.30;13.70;;;19.30;70.30;;;;;;5051149;28;20444;-53
2021/12/13 03:20:54;;;;;;;14.00;13.50;;;19.40;70.30;;;;;;5051247;28;20440;-51
2021/12/13 03:23:35;;;;;;;14.30;13.70;;;19.30;70.50;;;;;;5050890;28;20444;-51
2021/12/13 03:26:30;;;;;;;13.50;13.00;;;19.30;70.70;;;;;;5051195;28;20844;-50
2021/12/13 03:29:11;;;;;;;14.07;13.57;;;19.30;70.90;;;;;;5044452;28;20475;-56
2021/12/13 03:31:41;;;;;;;13.03;12.50;;;19.30;70.90;;;;;;5051111;28;20945;-50
2021/12/13 03:34:11;;;;;;;12.60;12.20;;;19.30;70.90;;;;;;5050977;28;21502;-50
2021/12/13 03:36:47;;;;;;;13.33;12.80;;;19.20;70.80;;;;;;5051201;28;20452;-50
2021/12/13 03:39:20;;;;;;;13.40;13.00;;;19.20;71.10;;;;;;5051182;28;20440;-49
2021/12/13 03:41:50;;;;;;;14.00;13.50;;;19.20;71.10;;;;;;5050689;28;20904;-50
2021/12/13 03:44:20;;;;;;;13.00;12.53;;;19.30;71.30;;;;;;5050759;28;20475;-51
2021/12/13 03:46:51;;;;;;;13.40;12.90;;;19.30;71.20;;;;;;5051063;28;20543;-55
2021/12/13 03:49:20;;;;;;;13.33;12.80;;;19.20;71.10;;;;;;5050919;28;20480;-50
2021/12/13 03:51:47;;;;;;;13.80;13.40;;;19.20;71.40;;;;;;5050731;28;20869;-49
2021/12/13 03:54:18;;;;;;;13.20;12.80;;;19.20;71.60;;;;;;5050563;28;20468;-50
2021/12/13 03:56:47;;;;;;;13.70;13.20;;;19.20;71.50;;;;;;5051062;28;20448;-49
2021/12/13 03:59:17;;;;;;;13.93;13.43;;;19.20;71.80;;;;;;5050795;28;20443;-50
2021/12/13 04:01:48;;;;;;;13.70;13.20;;;19.20;72.20;;;;;;5051313;28;20448;-53
2021/12/13 04:04:19;;;;;;;13.60;13.20;;;19.20;72.40;;;;;;5054357;28;20471;-50
2021/12/13 04:06:50;;;;;;;13.80;13.30;;;19.20;72.80;;;;;;5054294;28;20457;-51
2021/12/13 04:09:19;;;;;;;13.43;13.03;;;19.20;73.10;;;;;;5054315;28;20479;-50
2021/12/13 04:11:47;;;;;;;14.53;14.03;;;19.20;73.50;;;;;;5054236;28;20497;-52
2021/12/13 04:14:22;;;;;;;14.40;13.90;;;19.20;74.10;;;;;;5054260;28;20826;-55
2021/12/13 04:17:04;;;;;;;13.63;13.13;;;19.30;73.80;;;;;;5054431;28;20462;-53
2021/12/13 04:19:44;;;;;;;13.50;13.10;;;19.30;74.00;;;;;;5054220;28;20522;-52
2021/12/13 04:22:12;;;;;;;14.53;14.13;;;19.30;73.90;;;;;;5054119;28;20531;-54
2021/12/13 04:24:48;;;;;;;14.10;13.60;;;19.30;74.30;;;;;;5054153;28;20464;-51
2021/12/13 04:27:20;;;;;;;14.27;13.77;;;19.20;74.50;;;;;;5054096;28;20462;-55
2021/12/13 04:29:49;;;;;;;13.20;12.80;;;19.20;74.70;;;;;;5053846;28;20476;-52
2021/12/13 04:32:19;;;;;;;13.07;12.67;;;19.30;75.00;;;;;;5053716;28;20452;-54
2021/12/13 04:34:48;;;;;;;13.93;13.47;;;19.30;75.00;;;;;;5053945;28;20483;-51
2021/12/13 04:37:16;;;;;;;14.03;13.63;;;19.30;75.60;;;;;;5053920;28;20841;-53
2021/12/13 04:39:46;;;;;;;13.10;12.70;;;19.20;75.80;;;;;;5053868;28;20444;-52
2021/12/13 04:42:17;;;;;;;13.43;13.03;;;19.30;76.60;;;;;;5053303;28;20452;-55
2021/12/13 04:44:50;;;;;;;13.77;13.27;;;19.20;76.90;;;;;;5053645;28;20543;-49
2021/12/13 04:47:19;;;;;;;13.83;13.23;;;19.20;76.80;;;;;;5053535;28;20444;-51
2021/12/13 04:49:52;;;;;;;13.60;13.20;;;19.30;78.10;;;;;;5053909;28;20840;-55
2021/12/13 04:52:21;;;;;;;13.50;13.03;;;19.30;80.20;;;;;;5053566;28;20812;-51
2021/12/13 04:54:52;;;;;;;14.70;14.20;;;19.20;80.90;;;;;;5053451;28;20476;-52
2021/12/13 04:57:19;;;;;;;13.93;13.43;;;19.20;81.50;;;;;;5053536;28;20448;-49
2021/12/13 04:59:49;;;;;;;13.77;13.27;;;19.30;82.20;;;;;;5053570;28;20941;-50
2021/12/13 05:02:17;;;;;;;13.67;13.17;;;19.30;82.10;;;;;;5053369;28;20467;-49
2021/12/13 05:04:43;;;;;;;15.50;14.70;;;19.30;82.10;;;;;;5053521;28;20518;-51
2021/12/13 05:07:10;;;;;;;13.63;13.23;;;19.30;82.20;;;;;;5053563;28;20452;-50
2021/12/13 05:09:37;;;;;;;14.00;13.40;;;19.30;82.60;;;;;;5053146;28;20480;-52
2021/12/13 05:12:13;;;;;;;14.77;14.17;;;19.20;83.20;;;;;;5053649;28;20452;-51
2021/12/13 05:14:43;;;;;;;14.47;13.97;;;19.20;83.90;;;;;;5052545;28;20463;-54
2021/12/13 05:17:13;;;;;;;13.87;13.47;;;19.20;84.50;;;;;;5053329;28;20452;-54
2021/12/13 05:19:43;;;;;;;14.93;14.23;;;19.20;84.80;;;;;;5053365;28;20436;-49
2021/12/13 05:22:12;;;;;;;14.77;14.27;;;19.20;84.80;;;;;;5052944;28;20531;-54
2021/12/13 05:24:45;;;;;;;14.47;13.97;;;19.30;85.20;;;;;;5053274;28;20539;-51
2021/12/13 05:27:15;;;;;;;14.57;13.97;;;19.20;85.40;;;;;;5053253;28;20487;-51
2021/12/13 05:29:44;;;;;;;14.40;13.90;;;19.20;85.80;;;;;;5052854;28;20472;-50
2021/12/13 05:32:15;;;;;;;14.77;14.27;;;19.20;86.10;;;;;;5052677;28;20941;-51
2021/12/13 05:34:47;;;;;;;15.70;15.10;;;19.20;86.60;;;;;;5052766;28;20505;-54
2021/12/13 05:37:13;;;;;;;14.60;14.10;;;19.20;87.10;;;;;;5052958;28;20440;-49
2021/12/13 05:39:56;;;;;;;14.90;14.37;;;19.10;87.10;;;;;;5052956;28;20448;-54
2021/12/13 05:42:36;;;;;;;14.63;13.77;;;19.20;87.70;;;;;;5052603;28;20437;-49
2021/12/13 05:45:04;;;;;;;14.30;13.80;;;19.20;87.70;;;;;;5076807;22;20905;-52
2021/12/13 05:47:31;;;;;;;14.43;13.93;;;19.20;88.00;;;;;;5052118;28;20490;-49
2021/12/13 05:49:58;;;;;;;15.40;14.50;;;19.10;88.20;;;;;;5052502;28;20480;-51
2021/12/13 05:52:31;;;;;;;16.47;15.40;;;19.20;91.20;;;;;;5052354;28;20834;-52
2021/12/13 05:55:03;;;;;;;16.97;15.83;;;19.70;94.00;;;;;;5052388;28;20472;-49
2021/12/13 05:57:34;;;;;;;17.40;16.10;;;20.40;95.70;;;;;;5040853;28;20449;-49
2021/12/13 06:00:08;;;;;;;19.07;17.03;;;20.90;96.00;;;;;;5032442;28;20451;-52
2021/12/13 06:02:59;;;;;;;18.37;16.70;;;21.10;96.80;;;;;;5032263;28;20960;-50
2021/12/13 06:05:30;;;;;;;23.13;16.87;;;21.30;99.90;;;;;;5032343;28;20465;-49
2021/12/13 06:08:00;;;;;;;18.80;17.27;;;21.40;99.90;;;;;;5032366;28;20453;-48
2021/12/13 06:10:35;;;;;;;21.23;17.70;;;21.40;99.90;;;;;;5031827;28;20857;-48
2021/12/13 06:13:06;;;;;;;18.83;17.33;;;21.50;99.90;;;;;;5032030;28;20541;-48
2021/12/13 06:15:36;;;;;;;18.50;17.10;;;21.40;99.90;;;;;;5032090;28;20556;-48
2021/12/13 06:18:17;;;;;;;17.90;16.50;;;21.40;99.90;;;;;;5031981;28;20454;-47
2021/12/13 06:20:51;;;;;;;19.37;17.83;;;21.50;99.90;;;;;;5031908;28;20445;-45
2021/12/13 06:23:20;;;;;;;20.63;18.83;;;21.50;99.90;;;;;;5031738;28;20878;-46
2021/12/13 06:25:53;;;;;;;19.93;18.10;;;21.50;98.60;;;;;;5031752;28;21005;-47
2021/12/13 06:28:24;;;;;;;17.73;16.50;;;21.50;97.90;;;;;;5031897;28;20449;-47
2021/12/13 06:30:58;;;;;;;18.70;17.37;;;21.50;97.20;;;;;;5031763;28;20488;-47
2021/12/13 06:33:26;;;;;;;18.50;16.83;;;21.50;96.40;;;;;;5031784;28;20447;-46
2021/12/13 06:35:54;;;;;;;18.60;17.20;;;21.50;95.80;;;;;;5031688;28;20464;-46
2021/12/13 06:38:34;;;;;;;18.47;16.97;;;21.50;95.20;;;;;;5031723;28;20453;-47
2021/12/13 06:41:07;;;;;;;17.27;15.97;;;21.50;94.40;;;;;;5031912;28;20440;-46
2021/12/13 06:43:40;;;;;;;18.20;16.90;;;21.50;93.90;;;;;;5031336;28;20441;-45
2021/12/13 06:46:10;;;;;;;17.70;16.30;;;21.40;93.40;;;;;;5031708;28;20571;-47
2021/12/13 06:48:42;;;;;;;16.57;15.70;;;21.40;92.90;;;;;;5031640;28;20519;-45
2021/12/13 06:51:11;;;;;;;18.87;17.30;;;21.40;92.40;;;;;;5031595;28;20488;-46
2021/12/13 06:53:38;;;;;;;19.07;17.63;;;21.40;91.90;;;;;;5031379;28;20780;-46
2021/12/13 06:56:24;;;;;;;18.67;17.30;;;21.40;91.50;;;;;;5031441;28;20480;-45
2021/12/13 06:58:58;;;;;;;18.50;16.63;;;21.40;91.10;;;;;;5031587;28;20459;-46
2021/12/13 07:01:25;;;;;;;16.73;15.93;;;21.40;90.70;;;;;;5031555;28;20527;-46
2021/12/13 07:03:59;;;;;;;18.23;16.80;;;21.30;90.30;;;;;;5031443;28;20452;-46
2021/12/13 07:06:28;;;;;;;17.43;16.40;;;21.30;90.10;;;;;;5031528;28;20469;-47
2021/12/13 07:09:06;;;;;;;16.50;15.57;;;21.30;89.50;;;;;;5031591;28;20453;-48
2021/12/13 07:11:48;;;;;;;17.37;16.37;;;21.30;88.80;;;;;;5030995;28;20484;-49
2021/12/13 07:14:19;;;;;;;17.23;16.23;;;21.30;88.10;;;;;;5031369;28;20449;-46
2021/12/13 07:16:50;;;;;;;17.47;16.57;;;21.30;87.40;;;;;;5031381;28;20444;-47
2021/12/13 07:19:19;;;;;;;16.23;15.20;;;21.30;86.60;;;;;;5031307;28;20924;-47
2021/12/13 07:21:56;;;;;;;16.10;15.30;;;21.30;86.20;;;;;;5031203;28;20449;-48
2021/12/13 07:24:33;;;;;;;15.90;15.23;;;21.20;85.60;;;;;;5031210;28;20448;-47
2021/12/13 07:27:04;;;;;;;16.10;15.20;;;21.20;85.30;;;;;;5031353;28;20452;-50
2021/12/13 07:29:39;;;;;;;16.30;15.00;;;21.20;84.80;;;;;;5031372;28;20445;-48
2021/12/13 07:32:10;;;;;;;16.37;15.47;;;21.10;84.20;;;;;;5031255;28;20480;-48
2021/12/13 07:34:54;;;;;;;14.47;13.77;;;21.10;83.90;;;;;;5031023;28;20472;-47
2021/12/13 07:37:35;;;;;;;14.73;13.83;;;21.10;83.50;;;;;;5033153;28;20453;-48
2021/12/13 07:40:19;;;;;;;14.50;13.70;;;21.00;83.10;;;;;;5035125;28;20456;-48
2021/12/13 07:42:56;;;;;;;14.10;13.40;;;20.90;82.80;;;;;;5034869;28;20451;-46
2021/12/13 07:45:28;;;;;;;14.03;13.13;;;21.00;82.70;;;;;;5034799;28;20472;-47
2021/12/13 07:47:55;;;;;;;15.87;14.37;;;20.90;82.40;;;;;;5034942;28;20448;-48
2021/12/13 07:50:23;;;;;;;14.17;13.57;;;20.90;82.20;;;;;;5034748;28;20452;-47
2021/12/13 07:52:55;;;;;;;15.20;14.40;;;20.80;82.30;;;;;;5034535;28;20866;-47
2021/12/13 07:55:26;;;;;;;14.37;13.57;;;20.60;82.60;;;;;;5034716;28;20811;-48
2021/12/13 07:57:55;;;;;;;14.17;13.20;;;20.50;82.90;;;;;;5034635;28;20444;-45
2021/12/13 08:00:28;;;;;;;14.67;13.80;;;20.50;83.20;;;;;;5034613;28;20451;-47
2021/12/13 08:02:57;;;;;;;14.73;13.93;;;20.40;83.50;;;;;;5034608;28;20449;-48
2021/12/13 08:05:28;;;;;;;13.90;13.13;;;20.30;83.50;;;;;;5034673;28;20660;-47
2021/12/13 08:07:59;;;;;;;15.30;14.70;;;20.30;83.50;;;;;;5034554;28;20448;-46
2021/12/13 08:10:29;;;;;;;13.40;12.90;;;20.30;83.60;;;;;;5034626;28;20472;-47
2021/12/13 08:13:02;;;;;;;12.67;12.17;;;20.20;83.60;;;;;;5034303;28;20854;-47
2021/12/13 08:15:36;;;;;;;14.17;13.47;;;20.20;83.60;;;;;;5034357;28;20826;-50
2021/12/13 08:18:07;;;;;;;13.70;13.20;;;20.10;83.50;;;;;;5034395;28;20455;-47
2021/12/13 08:20:37;;;;;;;14.30;13.70;;;20.10;83.60;;;;;;5034145;28;20445;-46
2021/12/13 08:23:06;;;;;;;14.30;13.70;;;20.10;83.50;;;;;;5034186;28;20957;-49
2021/12/13 08:25:36;;;;;;;14.63;13.93;;;20.10;84.10;;;;;;5034179;28;20975;-47
2021/12/13 08:28:06;;;;;;;13.90;13.40;;;20.00;83.30;;;;;;5034106;28;20450;-54
2021/12/13 08:30:43;;;;;;;14.43;13.73;;;20.00;83.50;;;;;;5033941;28;20779;-50
2021/12/13 08:33:14;;;;;;;14.47;13.77;;;20.00;83.50;;;;;;5033906;28;20464;-49
2021/12/13 08:35:53;;;;;;;14.97;14.00;;;20.00;83.30;;;;;;5034003;28;20531;-49
2021/12/13 08:38:35;;;;;;;14.63;14.03;;;20.00;83.30;;;;;;5034013;28;20445;-47
2021/12/13 08:41:07;;;;;;;14.77;14.07;;;19.90;83.20;;;;;;5033899;28;20437;-47
2021/12/13 08:43:36;;;;;;;14.10;13.53;;;19.90;83.00;;;;;;5033689;28;20441;-49
2021/12/13 08:46:05;;;;;;;14.47;13.97;;;19.90;82.80;;;;;;5033763;28;20484;-49
2021/12/13 08:48:31;;;;;;;15.00;14.40;;;19.90;82.60;;;;;;5032518;28;20453;-47
2021/12/13 08:51:02;;;;;;;14.33;13.73;;;19.90;82.50;;;;;;5033707;28;20477;-47
2021/12/13 08:53:34;;;;;;;14.97;14.37;;;19.90;82.40;;;;;;5033492;28;20449;-50
2021/12/13 08:56:06;;;;;;;14.43;13.83;;;19.80;82.30;;;;;;5033437;28;20469;-48
2021/12/13 08:58:34;;;;;;;14.27;13.67;;;19.80;82.50;;;;;;5033557;28;20472;-49
2021/12/13 09:01:05;;;;;;;14.13;13.53;;;19.80;82.60;;;;;;5033522;28;20528;-47
2021/12/13 09:03:38;;;;;;;14.27;13.77;;;19.70;82.60;;;;;;5033345;28;20957;-47
2021/12/13 09:06:30;;;;;;;14.60;14.00;;;19.70;82.50;;;;;;5033447;28;20472;-49
2021/12/13 09:09:01;;;;;;;13.47;12.97;;;19.70;82.60;;;;;;5033510;28;20449;-49
2021/12/13 09:11:33;;;;;;;14.17;13.57;;;19.70;82.30;;;;;;5033062;28;20484;-50
2021/12/13 09:14:06;;;;;;;14.07;13.20;;;19.70;82.30;;;;;;5033417;28;20481;-48
2021/12/13 09:16:53;;;;;;;14.53;14.00;;;19.70;82.10;;;;;;5033266;28;20520;-47
2021/12/13 09:19:25;;;;;;;14.60;13.97;;;19.60;82.10;;;;;;5033321;28;20806;-49
2021/12/13 09:21:57;;;;;;;14.80;14.13;;;19.60;82.10;;;;;;5032939;28;20445;-48
2021/12/13 09:24:39;;;;;;;14.23;13.40;;;19.70;82.00;;;;;;5033091;28;20978;-49
2021/12/13 09:27:23;;;;;;;14.67;14.07;;;19.60;81.80;;;;;;5033123;28;20452;-49
2021/12/13 09:29:55;;;;;;;15.23;14.63;;;19.60;81.60;;;;;;5033009;28;20449;-48
2021/12/13 09:32:30;;;;;;;14.67;14.17;;;19.60;81.60;;;;;;5032810;28;20551;-49
2021/12/13 09:35:20;;;;;;;14.67;13.90;;;19.60;81.50;;;;;;5032860;28;20469;-50
2021/12/13 09:37:47;;;;;;;14.10;13.60;;;19.60;81.20;;;;;;5033013;28;20810;-49
2021/12/13 09:40:17;;;;;;;15.10;14.50;;;19.50;81.00;;;;;;5032812;28;20843;-47
2021/12/13 09:42:47;;;;;;;15.47;14.87;;;19.50;81.10;;;;;;5032607;28;20468;-49
2021/12/13 09:45:22;;;;;;;14.70;14.20;;;19.60;80.90;;;;;;5032689;28;20473;-49
2021/12/13 09:47:50;;;;;;;14.73;14.23;;;19.50;80.90;;;;;;5032717;28;20456;-48
2021/12/13 09:50:20;;;;;;;15.07;14.47;;;19.50;81.00;;;;;;5032457;28;20463;-48
2021/12/13 09:52:55;;;;;;;15.00;14.50;;;19.50;80.80;;;;;;5032284;28;20487;-49
2021/12/13 09:55:28;;;;;;;14.87;14.30;;;19.50;80.70;;;;;;5032433;28;20465;-47
2021/12/13 09:57:58;;;;;;;14.27;13.73;;;19.40;80.90;;;;;;5032567;28;20445;-50
2021/12/13 10:00:30;;;;;;;14.50;14.00;;;19.50;81.00;;;;;;5032257;28;20968;-47
2021/12/13 10:03:03;;;;;;;13.97;13.57;;;19.40;80.80;;;;;;5032144;28;20818;-53
2021/12/13 10:05:33;;;;;;;14.67;14.07;;;19.50;80.90;;;;;;5032312;28;20465;-48
2021/12/13 10:08:04;;;;;;;14.43;13.93;;;19.50;80.70;;;;;;5032369;28;20453;-49
2021/12/13 10:10:34;;;;;;;13.90;13.50;;;19.50;80.60;;;;;;5032307;28;20807;-48
2021/12/13 10:13:06;;;;;;;14.27;13.87;;;19.50;80.30;;;;;;5031992;28;20517;-51
2021/12/13 10:15:37;;;;;;;15.00;14.40;;;19.50;80.20;;;;;;5032017;28;20469;-49
2021/12/13 10:18:08;;;;;;;15.03;14.43;;;19.50;80.20;;;;;;5032166;28;20468;-48
2021/12/13 10:20:39;;;;;;;13.10;12.60;;;19.40;80.00;;;;;;5032087;28;20460;-49
2021/12/13 10:23:09;;;;;;;13.50;13.10;;;19.50;79.90;;;;;;5031916;28;20441;-49
2021/12/13 10:25:44;;;;;;;14.13;13.63;;;19.50;79.80;;;;;;5031791;28;20476;-49
2021/12/13 10:28:14;;;;;;;13.80;13.40;;;19.50;79.60;;;;;;5031880;28;20800;-47
2021/12/13 10:30:45;;;;;;;14.80;14.30;;;19.50;79.40;;;;;;5031916;28;20456;-49
2021/12/13 10:33:14;;;;;;;15.00;14.50;;;19.50;79.40;;;;;;5031635;28;20887;-50
2021/12/13 10:35:43;;;;;;;14.93;14.37;;;19.50;79.20;;;;;;5031683;28;20472;-48
2021/12/13 10:38:14;;;;;;;13.80;13.40;;;19.50;78.90;;;;;;5030742;28;20954;-50
2021/12/13 10:40:45;;;;;;;14.93;14.43;;;19.50;80.50;;;;;;5031860;28;20441;-51
2021/12/13 10:43:14;;;;;;;14.77;14.00;;;19.50;86.10;;;;;;5031451;28;20452;-47
2021/12/13 10:45:45;;;;;;;15.17;14.67;;;19.60;86.80;;;;;;5031726;28;20487;-53
2021/12/13 10:48:16;;;;;;;15.33;14.73;;;19.70;89.40;;;;;;5031789;28;20954;-50
2021/12/13 10:50:46;;;;;;;14.90;14.30;;;19.80;90.00;;;;;;5031625;28;20445;-52
2021/12/13 10:53:15;;;;;;;14.70;14.20;;;19.80;90.40;;;;;;5031270;28;20485;-51
2021/12/13 10:55:46;;;;;;;15.10;14.60;;;19.80;90.80;;;;;;5031253;28;20457;-52
2021/12/13 10:58:16;;;;;;;14.17;13.67;;;19.80;90.90;;;;;;5031485;28;20437;-50
2021/12/13 11:00:49;;;;;;;13.80;13.40;;;19.80;91.60;;;;;;5031465;28;20524;-52
2021/12/13 11:03:21;;;;;;;14.30;13.80;;;19.80;91.60;;;;;;5031241;28;20441;-48
2021/12/13 11:05:49;;;;;;;15.10;14.47;;;19.80;91.80;;;;;;5031161;28;21001;-51
2021/12/13 11:08:19;;;;;;;14.67;14.20;;;19.80;91.80;;;;;;5031400;28;20441;-51
2021/12/13 11:10:49;;;;;;;15.40;14.80;;;19.80;91.80;;;;;;5031519;28;20449;-48
2021/12/13 11:13:17;;;;;;;15.13;14.63;;;19.80;91.80;;;;;;5034593;28;20484;-48
2021/12/13 11:15:51;;;;;;;14.83;14.33;;;19.80;91.90;;;;;;5035179;28;20476;-49
2021/12/13 11:18:27;;;;;;;14.70;14.30;;;19.80;92.10;;;;;;5035404;28;20445;-54
2021/12/13 11:20:58;;;;;;;14.50;14.00;;;19.70;91.60;;;;;;5035548;28;20440;-50
2021/12/13 11:23:25;;;;;;;15.17;14.57;;;19.70;91.30;;;;;;5035129;28;20437;-49
2021/12/13 11:25:55;;;;;;;14.83;14.33;;;19.70;90.90;;;;;;5034402;28;20475;-52
2021/12/13 11:28:22;;;;;;;14.60;14.10;;;19.60;90.60;;;;;;5034309;28;20864;-53
2021/12/13 11:30:51;;;;;;;13.90;13.50;;;19.60;90.30;;;;;;5035149;28;20456;-51
2021/12/13 11:33:50;;;;;;;14.43;14.00;;;19.60;90.10;;;;;;5034898;28;20491;-52
2021/12/13 11:36:45;;;;;;;14.53;14.13;;;19.60;89.80;;;;;;5034984;28;20468;-49
2021/12/13 11:39:49;;;;;;;14.70;14.20;;;19.60;89.20;;;;;;5035095;28;20942;-51
2021/12/13 11:42:49;;;;;;;15.03;14.63;;;19.60;88.80;;;;;;5034874;28;20444;-49
2021/12/13 11:45:46;;;;;;;13.90;13.50;;;19.60;88.60;;;;;;5019465;22;1146664;-49
2021/12/13 11:48:33;;;;;;;14.07;13.67;;;19.50;88.20;;;;;;5074819;28;20201;-50
2021/12/13 11:51:30;;;;;;;14.80;14.30;;;19.50;87.90;;;;;;5074834;28;20842;-49
2021/12/13 11:54:35;;;;;;;14.30;13.90;;;19.50;87.60;;;;;;5074765;28;20438;-52
2021/12/13 11:58:03;;;;;;;13.97;13.50;;;19.50;87.20;;;;;;5048631;28;20459;-54
2021/12/13 12:00:48;;;;;;;14.53;14.03;;;19.50;87.80;;;;;;5054679;28;20451;-49
2021/12/13 12:03:54;;;;;;;14.40;14.00;;;19.50;86.80;;;;;;5054542;28;20831;-56
2021/12/13 12:07:06;;;;;;;14.00;13.60;;;19.40;86.40;;;;;;5054440;28;20801;-51
2021/12/13 12:10:01;;;;;;;14.47;13.97;;;19.40;86.20;;;;;;5054375;28;20469;-56
2021/12/13 12:13:05;;;;;;;14.70;14.30;;;19.40;86.00;;;;;;5054112;28;20490;-49
2021/12/13 12:15:35;;;;;;;14.33;13.93;;;19.40;85.80;;;;;;5054308;28;20468;-52
2021/12/13 12:18:06;;;;;;;14.60;14.10;;;19.40;85.40;;;;;;5054303;28;20455;-51
2021/12/13 12:20:38;;;;;;;14.30;13.80;;;19.40;85.30;;;;;;5054261;28;20447;-49
2021/12/13 12:23:08;;;;;;;14.20;13.80;;;19.40;85.20;;;;;;5053746;28;20440;-50
2021/12/13 12:25:36;;;;;;;14.70;14.20;;;19.40;85.00;;;;;;5054201;28;20837;-50
2021/12/13 12:28:06;;;;;;;14.40;13.90;;;19.40;84.80;;;;;;5054098;28;20933;-50
2021/12/13 12:30:38;;;;;;;14.93;14.43;;;19.40;84.50;;;;;;5054238;28;20839;-49
2021/12/13 12:33:07;;;;;;;14.43;13.90;;;19.40;84.30;;;;;;5053808;28;20487;-51
2021/12/13 12:35:40;;;;;;;14.40;14.00;;;19.40;84.20;;;;;;5053847;28;20551;-56
2021/12/13 12:38:25;;;;;;;14.00;13.60;;;19.40;83.90;;;;;;5053959;28;20502;-52
2021/12/13 12:41:32;;;;;;;14.23;13.83;;;19.40;83.30;;;;;;5053865;28;20448;-52
2021/12/13 12:43:59;;;;;;;14.50;14.10;;;19.40;83.20;;;;;;5053798;28;20493;-50
2021/12/13 12:46:28;;;;;;;13.60;13.20;;;19.40;83.10;;;;;;5053606;28;20475;-53
2021/12/13 12:48:57;;;;;;;14.27;13.87;;;19.40;83.00;;;;;;5053791;28;20451;-49
2021/12/13 12:51:27;;;;;;;14.47;14.07;;;19.40;82.90;;;;;;5053556;28;20444;-54
2021/12/13 12:53:58;;;;;;;14.10;13.60;;;19.40;82.70;;;;;;5053466;28;20860;-52
2021/12/13 12:56:28;;;;;;;14.10;13.70;;;19.30;82.40;;;;;;5053658;28;20500;-51
2021/12/13 12:58:59;;;;;;;13.90;13.37;;;19.30;82.50;;;;;;5053552;28;20451;-51
2021/12/13 13:01:28;;;;;;;13.90;13.50;;;19.30;82.40;;;;;;5053585;28;20451;-51
2021/12/13 13:04:08;;;;;;;13.70;13.30;;;19.40;82.40;;;;;;5053337;28;20500;-51